createdAt,value
2022-09-09T00:03:56.589Z,5.89
2022-09-09T00:09:22.665Z,5.95
2022-09-09T00:14:33.563Z,5.37
2022-09-09T00:19:46.910Z,5.70
2022-09-09T00:24:57.625Z,5.93
2022-09-09T00:30:23.724Z,5.88
2022-09-09T00:35:30.089Z,5.40
2022-09-09T00:40:35.243Z,5.43
2022-09-09T00:45:43.631Z,5.91
2022-09-09T00:50:59.585Z,5.65
2022-09-09T00:56:14.263Z,5.88
2022-09-09T01:01:16.508Z,5.56
2022-09-09T01:06:30.008Z,5.85
2022-09-09T01:11:36.266Z,5.87
2022-09-09T01:16:39.452Z,5.55
2022-09-09T01:21:58.420Z,5.50
2022-09-09T01:27:04.035Z,5.70
2022-09-09T01:32:42.619Z,5.95
2022-09-09T01:37:46.508Z,5.58
2022-09-09T01:42:48.827Z,5.56
2022-09-09T01:47:52.215Z,5.45
2022-09-09T01:53:17.182Z,5.70
2022-09-09T01:58:26.328Z,5.86
2022-09-09T02:03:34.909Z,5.81
2022-09-09T02:08:53.572Z,5.78
2022-09-09T02:13:59.360Z,5.72
2022-09-09T02:19:15.775Z,5.52
2022-09-09T02:24:34.389Z,5.52
2022-09-09T02:29:55.362Z,5.41
2022-09-09T02:35:14.529Z,5.21
2022-09-09T02:40:18.341Z,4.93
2022-09-09T02:45:55.149Z,5.47
2022-09-09T02:51:04.106Z,5.32
2022-09-09T02:56:15.970Z,4.98
2022-09-09T03:01:41.229Z,4.86
2022-09-09T03:06:45.647Z,4.89
2022-09-09T03:11:56.224Z,4.67
2022-09-09T03:17:01.987Z,4.74
2022-09-09T03:22:07.683Z,4.68
2022-09-09T03:27:12.327Z,4.61
2022-09-09T03:32:18.715Z,4.62
2022-09-09T03:37:21.318Z,4.28
2022-09-09T03:42:25.683Z,4.55
2022-09-09T03:47:31.277Z,4.47
2022-09-09T03:52:40.390Z,4.86
2022-09-09T03:57:44.815Z,4.68
2022-09-09T04:02:48.544Z,4.56
2022-09-09T04:07:52.762Z,4.30
2022-09-09T04:12:58.085Z,4.19
2022-09-09T04:18:00.355Z,4.37
2022-09-09T04:23:02.900Z,4.52
2022-09-09T04:28:05.125Z,4.39
2022-09-09T04:33:08.219Z,4.73
2022-09-09T04:38:10.595Z,4.94
2022-09-09T04:43:14.562Z,4.77
2022-09-09T04:48:19.265Z,4.77
2022-09-09T04:53:22.023Z,5.02
2022-09-09T04:58:24.835Z,4.74
2022-09-09T05:03:27.839Z,4.77
2022-09-09T05:08:30.378Z,5.02
2022-09-09T05:13:33.292Z,5.01
2022-09-09T05:18:36.062Z,5.02
2022-09-09T05:23:38.791Z,5.46
2022-09-09T05:28:41.500Z,5.65
2022-09-09T05:33:47.122Z,5.45
2022-09-09T05:38:51.129Z,5.63
2022-09-09T05:43:54.486Z,5.17
2022-09-09T05:48:59.093Z,5.94
2022-09-09T05:54:05.296Z,6.14
2022-09-09T05:59:13.752Z,5.96
2022-09-09T06:04:19.269Z,6.39
2022-09-09T06:09:22.111Z,6.34
2022-09-09T06:14:26.670Z,6.11
2022-09-09T06:19:29.733Z,6.77
2022-09-09T06:24:34.155Z,6.75
2022-09-09T06:29:38.117Z,6.69
2022-09-09T06:34:41.236Z,6.88
2022-09-09T06:39:44.699Z,6.94
2022-09-09T06:44:47.273Z,6.66
2022-09-09T06:49:58.013Z,7.40
2022-09-09T06:55:00.759Z,7.32
2022-09-09T07:00:05.457Z,7.49
2022-09-09T07:05:09.361Z,7.61
2022-09-09T07:10:11.886Z,7.92
2022-09-09T07:15:15.291Z,8.20
2022-09-09T07:20:21.399Z,8.27
2022-09-09T07:25:23.900Z,8.13
2022-09-09T07:30:27.892Z,8.22
2022-09-09T07:35:31.314Z,8.53
2022-09-09T07:40:35.130Z,8.61
2022-09-09T07:45:37.985Z,8.73
2022-09-09T07:50:40.637Z,8.94
2022-09-09T07:55:44.823Z,8.58
2022-09-09T08:00:47.127Z,8.71
2022-09-09T08:05:49.453Z,8.30
2022-09-09T08:10:53.449Z,8.60
2022-09-09T08:15:56.833Z,8.79
2022-09-09T08:20:59.222Z,8.93
2022-09-09T08:26:13.080Z,9.33
2022-09-09T08:36:30.371Z,9.66
2022-09-09T08:41:47.916Z,9.86
2022-09-09T08:47:05.379Z,9.90
2022-09-09T08:52:17.278Z,9.60
2022-09-09T08:57:27.952Z,9.06
2022-09-09T09:02:59.843Z,9.84
2022-09-09T09:08:39.265Z,9.87
2022-09-09T09:13:56.837Z,9.50
2022-09-09T09:19:00.499Z,9.85
2022-09-09T09:24:11.589Z,9.56
2022-09-09T09:29:19.221Z,9.97
2022-09-09T09:34:21.767Z,9.62
2022-09-09T09:44:52.714Z,9.68
2022-09-09T09:50:02.346Z,9.51
2022-09-09T09:55:15.235Z,10.12
2022-09-09T10:00:24.078Z,9.81
2022-09-09T10:05:38.004Z,10.04
2022-09-09T10:11:08.401Z,10.38
2022-09-09T10:16:32.849Z,10.42
2022-09-09T10:21:53.661Z,10.25
2022-09-09T10:27:30.086Z,10.42
2022-09-09T10:32:57.066Z,10.48
2022-09-09T10:38:19.669Z,10.57
2022-09-09T10:44:00.592Z,10.64
2022-09-09T10:49:23.217Z,10.73
2022-09-09T10:54:58.616Z,10.48
2022-09-09T11:00:24.640Z,10.29
2022-09-09T11:05:42.295Z,10.64
2022-09-09T11:10:56.357Z,10.63
2022-09-09T11:16:06.985Z,10.56
2022-09-09T11:21:38.400Z,10.58
2022-09-09T11:26:46.428Z,10.58
2022-09-09T11:32:05.049Z,10.76
2022-09-09T11:37:40.660Z,11.21
2022-09-09T11:42:44.346Z,11.16
2022-09-09T11:47:54.100Z,11.06
2022-09-09T11:53:15.277Z,11.19
2022-09-09T11:58:19.585Z,10.70
2022-09-09T12:03:43.347Z,11.14
2022-09-09T12:08:50.297Z,10.74
2022-09-09T12:13:59.495Z,10.93
2022-09-09T12:19:26.440Z,11.31
2022-09-09T12:24:39.686Z,11.29
2022-09-09T12:30:06.200Z,11.48
2022-09-09T12:35:27.694Z,11.52
2022-09-09T12:40:36.499Z,11.67
2022-09-09T12:45:42.280Z,11.73
2022-09-09T12:50:53.781Z,11.79
2022-09-09T12:55:59.267Z,11.96
2022-09-09T13:01:04.438Z,11.93
2022-09-09T13:06:18.339Z,11.95
2022-09-09T13:11:44.548Z,12.05
2022-09-09T13:17:07.690Z,12.08
2022-09-09T13:22:26.184Z,12.22
2022-09-09T13:27:35.489Z,12.27
2022-09-09T13:32:39.236Z,11.99
2022-09-09T13:37:42.471Z,12.01
2022-09-09T13:42:45.947Z,12.12
2022-09-09T13:47:53.365Z,12.20
2022-09-09T13:53:00.491Z,12.15
2022-09-09T13:58:06.273Z,12.37
2022-09-09T14:03:09.269Z,12.00
2022-09-09T14:08:18.088Z,12.16
2022-09-09T14:13:22.309Z,11.40
2022-09-09T14:18:26.539Z,11.80
2022-09-09T14:23:28.880Z,11.75
2022-09-09T14:33:54.021Z,11.50
2022-09-09T14:38:56.221Z,11.56
2022-09-09T14:43:58.449Z,11.53
2022-09-09T14:49:00.977Z,11.21
2022-09-09T14:54:03.700Z,11.52
2022-09-09T14:59:05.972Z,11.48
2022-09-09T15:04:08.939Z,11.26
2022-09-09T15:09:14.328Z,11.08
2022-09-09T15:14:16.768Z,10.77
2022-09-09T15:19:18.966Z,10.99
2022-09-09T15:24:23.234Z,10.99
2022-09-09T15:29:26.257Z,10.89
2022-09-09T15:34:29.980Z,10.81
2022-09-09T15:39:39.832Z,10.76
2022-09-09T15:44:43.577Z,10.48
2022-09-09T15:49:45.990Z,10.49
2022-09-09T15:54:48.191Z,10.60
2022-09-09T15:59:50.464Z,10.20
2022-09-09T16:04:52.985Z,9.86
2022-09-09T16:09:55.593Z,10.01
2022-09-09T16:15:00.870Z,9.96
2022-09-09T16:20:03.886Z,9.90
2022-09-09T16:25:06.910Z,9.45
2022-09-09T16:30:10.038Z,9.25
2022-09-09T16:35:12.821Z,9.21
2022-09-09T16:40:16.778Z,8.89
2022-09-09T16:45:22.743Z,8.97
2022-09-09T16:50:25.192Z,8.80
2022-09-09T16:55:27.918Z,8.94
2022-09-09T17:00:30.166Z,8.71
2022-09-09T17:05:33.950Z,8.55
2022-09-09T17:10:41.865Z,8.55
2022-09-09T17:15:44.333Z,8.49
2022-09-09T17:20:47.451Z,8.37
2022-09-09T17:25:59.226Z,8.31
2022-09-09T17:31:03.030Z,7.92
2022-09-09T17:36:32.954Z,8.34
2022-09-09T17:41:37.774Z,7.80
2022-09-09T17:46:41.897Z,7.97
2022-09-09T17:51:45.995Z,7.96
2022-09-09T17:56:49.373Z,7.81
2022-09-09T18:01:51.957Z,7.63
2022-09-09T18:06:54.760Z,7.51
2022-09-09T18:11:58.942Z,7.23
2022-09-09T18:17:03.001Z,7.28
2022-09-09T18:22:07.057Z,7.47
2022-09-09T18:27:10.660Z,7.10
2022-09-09T18:32:17.599Z,7.25
2022-09-09T18:37:24.618Z,6.97
2022-09-09T18:42:27.881Z,7.05
2022-09-09T18:47:32.879Z,6.79
2022-09-09T18:52:35.372Z,6.72
2022-09-09T18:57:39.032Z,6.87
2022-09-09T19:02:43.174Z,6.53
2022-09-09T19:07:45.463Z,6.46
2022-09-09T19:12:47.839Z,6.30
2022-09-09T19:17:51.320Z,6.49
2022-09-09T19:22:58.727Z,6.46
2022-09-09T19:28:01.983Z,6.05
2022-09-09T19:33:05.637Z,6.42
2022-09-09T19:38:11.841Z,6.28
2022-09-09T19:43:14.164Z,6.21
2022-09-09T19:48:17.241Z,6.36
2022-09-09T19:53:21.805Z,6.08
2022-09-09T19:58:24.110Z,6.14
2022-09-09T20:03:26.399Z,6.00
2022-09-09T20:08:28.663Z,6.04
2022-09-09T20:13:32.469Z,5.69
2022-09-09T20:18:37.281Z,5.63
2022-09-09T20:23:40.385Z,5.64
2022-09-09T20:28:42.743Z,5.38
2022-09-09T20:33:45.846Z,5.57
2022-09-09T20:38:58.056Z,5.50
2022-09-09T20:44:05.980Z,5.72
2022-09-09T20:49:12.764Z,5.36
2022-09-09T20:54:25.139Z,5.66
2022-09-09T20:59:29.868Z,5.24
2022-09-09T21:04:32.118Z,5.37
2022-09-09T21:09:34.285Z,5.17
2022-09-09T21:14:36.495Z,4.98
2022-09-09T21:19:38.652Z,5.17
2022-09-09T21:24:41.181Z,5.30
2022-09-09T21:29:43.381Z,5.14
2022-09-09T21:34:48.585Z,5.10
2022-09-09T21:39:50.958Z,4.99
2022-09-09T21:44:53.096Z,5.02
2022-09-09T21:49:55.258Z,4.98
2022-09-09T21:54:58.154Z,4.80
2022-09-09T22:00:00.457Z,4.68
2022-09-09T22:05:02.758Z,4.51
2022-09-09T22:10:05.756Z,4.53
2022-09-09T22:15:08.172Z,4.59
2022-09-09T22:20:12.385Z,4.38
2022-09-09T22:25:14.959Z,4.65
2022-09-09T22:30:17.280Z,4.60
2022-09-09T22:35:19.554Z,4.34
2022-09-09T22:40:22.425Z,4.40
2022-09-09T22:45:24.723Z,4.43
2022-09-09T22:50:28.161Z,4.41
2022-09-09T22:55:30.817Z,3.57
2022-09-09T23:00:32.981Z,3.95
2022-09-09T23:05:38.725Z,4.06
2022-09-09T23:10:43.313Z,4.11
2022-09-09T23:15:48.043Z,3.96
2022-09-09T23:21:00.735Z,4.15
2022-09-09T23:26:05.523Z,4.20
2022-09-09T23:31:13.236Z,3.88
2022-09-09T23:36:17.285Z,4.01
2022-09-09T23:41:21.281Z,3.53
2022-09-09T23:46:28.814Z,3.96
2022-09-09T23:51:32.305Z,3.72
2022-09-09T23:56:37.964Z,3.10
